createdAt,value
2022-09-16T04:00:28.842Z,70.73
2022-09-16T04:01:28.812Z,70.12
2022-09-16T04:02:28.790Z,70.32
2022-09-16T04:03:33.104Z,70.22
2022-09-16T04:04:28.734Z,70.18
2022-09-16T04:05:28.732Z,70.12
2022-09-16T04:06:28.715Z,70.32
2022-09-16T04:07:28.703Z,70.02
2022-09-16T04:08:28.694Z,70.12
2022-09-16T04:09:28.679Z,70.02
2022-09-16T04:10:28.677Z,70.22
2022-09-16T04:11:33.703Z,69.92
2022-09-16T04:12:28.656Z,69.92
2022-09-16T04:13:28.656Z,70.02
2022-09-16T04:14:28.623Z,69.92
2022-09-16T04:15:28.623Z,70.62
2022-09-16T04:16:28.625Z,70.52
2022-09-16T04:17:28.589Z,70.62
2022-09-16T04:18:28.614Z,70.32
2022-09-16T04:19:28.564Z,70.12
2022-09-16T04:20:28.580Z,70.02
2022-09-16T04:21:28.542Z,69.71
2022-09-16T04:22:33.579Z,70.02
2022-09-16T04:23:28.520Z,70.36
2022-09-16T04:24:28.512Z,69.85
2022-09-16T04:25:28.553Z,70.65
2022-09-16T04:26:28.493Z,70.62
2022-09-16T04:27:28.475Z,70.56
2022-09-16T04:28:28.483Z,70.42
2022-09-16T04:29:28.454Z,70.62
2022-09-16T04:30:28.461Z,70.22
2022-09-16T04:31:28.506Z,70.45
2022-09-16T04:32:28.443Z,70.05
2022-09-16T04:33:33.431Z,70.86
2022-09-16T04:34:28.403Z,71.37
2022-09-16T04:35:28.388Z,71.77
2022-09-16T04:36:28.391Z,71.57
2022-09-16T04:37:28.363Z,71.47
2022-09-16T04:38:28.360Z,71.37
2022-09-16T04:39:28.343Z,70.56
2022-09-16T04:40:28.390Z,70.86
2022-09-16T04:41:28.330Z,71.57
2022-09-16T04:42:28.312Z,71.77
2022-09-16T04:43:28.451Z,71.97
2022-09-16T04:44:33.308Z,71.57
2022-09-16T04:45:28.273Z,71.77
2022-09-16T04:46:28.339Z,72.48
2022-09-16T04:47:28.257Z,71.88
2022-09-16T04:48:28.264Z,72.08
2022-09-16T04:49:28.229Z,72.28
2022-09-16T04:50:28.227Z,71.67
2022-09-16T04:51:28.224Z,71.57
2022-09-16T04:52:28.198Z,72.28
2022-09-16T04:53:28.188Z,72.08
2022-09-16T04:54:28.175Z,72.68
2022-09-16T04:55:33.188Z,72.38
2022-09-16T04:56:28.170Z,72.28
2022-09-16T04:57:28.143Z,71.97
2022-09-16T04:58:28.141Z,72.41
2022-09-16T04:59:28.120Z,72.17
2022-09-16T05:00:28.107Z,72.17
2022-09-16T05:01:28.175Z,72.08
2022-09-16T05:02:28.084Z,72.17
2022-09-16T05:03:28.182Z,72.17
2022-09-16T05:04:28.082Z,71.77
2022-09-16T05:05:28.050Z,71.97
2022-09-16T05:06:33.071Z,72.48
2022-09-16T05:07:28.027Z,72.78
2022-09-16T05:08:28.026Z,73.69
2022-09-16T05:09:28.005Z,72.99
2022-09-16T05:10:28.007Z,72.99
2022-09-16T05:11:28.023Z,73.09
2022-09-16T05:12:27.988Z,73.63
2022-09-16T05:13:27.973Z,73.19
2022-09-16T05:14:28.002Z,73.59
2022-09-16T05:15:27.939Z,73.93
2022-09-16T05:16:28.008Z,73.63
2022-09-16T05:17:50.482Z,73.93
2022-09-16T05:18:28.907Z,74.04
2022-09-16T05:19:27.927Z,73.83
2022-09-16T05:20:28.002Z,74.04
2022-09-16T05:21:27.896Z,74.04
2022-09-16T05:22:27.862Z,73.83
2022-09-16T05:23:27.911Z,73.93
2022-09-16T05:24:27.845Z,73.63
2022-09-16T05:25:27.829Z,74.27
2022-09-16T05:26:27.835Z,73.73
2022-09-16T05:27:27.803Z,74.33
2022-09-16T05:28:32.817Z,74.33
2022-09-16T05:29:27.780Z,75.15
2022-09-16T05:30:27.781Z,74.24
2022-09-16T05:31:27.767Z,74.33
2022-09-16T05:32:27.751Z,74.33
2022-09-16T05:33:27.738Z,74.33
2022-09-16T05:34:27.726Z,74.13
2022-09-16T05:35:27.715Z,73.53
2022-09-16T05:36:27.837Z,73.83
2022-09-16T05:37:27.694Z,73.12
2022-09-16T05:38:27.681Z,72.92
2022-09-16T05:39:32.691Z,72.31
2022-09-16T05:40:27.737Z,73.63
2022-09-16T05:41:27.663Z,73.32
2022-09-16T05:42:27.650Z,73.39
2022-09-16T05:43:27.628Z,72.31
2022-09-16T05:44:27.661Z,72.78
2022-09-16T05:45:32.064Z,71.88
2022-09-16T05:46:27.660Z,71.97
2022-09-16T05:47:27.591Z,72.17
2022-09-16T05:48:27.574Z,74.10
2022-09-16T05:49:27.556Z,73.80
2022-09-16T05:50:32.569Z,74.16
2022-09-16T05:51:27.534Z,74.87
2022-09-16T05:52:27.657Z,73.76
2022-09-16T05:53:27.570Z,72.04
2022-09-16T05:54:27.505Z,72.04
2022-09-16T05:55:27.496Z,72.92
2022-09-16T05:56:27.496Z,72.01
2022-09-16T05:57:27.509Z,72.21
2022-09-16T05:58:27.502Z,72.11
2022-09-16T05:59:27.445Z,72.41
2022-09-16T06:00:27.449Z,71.91
2022-09-16T06:01:32.533Z,71.00
2022-09-16T06:02:27.465Z,71.50
2022-09-16T06:03:27.411Z,70.18
2022-09-16T06:04:27.397Z,70.22
2022-09-16T06:05:27.383Z,70.29
2022-09-16T06:06:27.371Z,70.09
2022-09-16T06:07:27.379Z,70.59
2022-09-16T06:08:27.471Z,71.09
2022-09-16T06:09:27.347Z,71.17
2022-09-16T06:10:27.333Z,71.00
2022-09-16T06:11:27.324Z,70.39
2022-09-16T06:12:32.349Z,69.98
2022-09-16T06:13:27.305Z,70.49
2022-09-16T06:14:27.281Z,71.30
2022-09-16T06:15:27.314Z,70.79
2022-09-16T06:16:27.305Z,71.60
2022-09-16T06:17:27.264Z,71.80
2022-09-16T06:18:27.307Z,71.80
2022-09-16T06:19:27.228Z,71.64
2022-09-16T06:20:27.214Z,71.53
2022-09-16T06:21:27.251Z,71.94
2022-09-16T06:22:27.191Z,71.94
2022-09-16T06:23:32.318Z,71.73
2022-09-16T06:24:27.170Z,71.53
2022-09-16T06:25:27.161Z,71.73
2022-09-16T06:26:27.161Z,71.73
2022-09-16T06:27:27.135Z,71.73
2022-09-16T06:28:27.125Z,71.73
2022-09-16T06:29:27.115Z,71.84
2022-09-16T06:30:30.983Z,72.17
2022-09-16T06:31:27.148Z,72.78
2022-09-16T06:32:27.092Z,72.08
2022-09-16T06:33:27.080Z,72.04
2022-09-16T06:34:32.086Z,71.73
2022-09-16T06:35:27.044Z,71.73
2022-09-16T06:36:27.049Z,71.57
2022-09-16T06:37:27.028Z,71.84
2022-09-16T06:38:27.017Z,71.53
2022-09-16T06:39:27.122Z,71.73
2022-09-16T06:40:27.090Z,72.04
2022-09-16T06:41:27.035Z,72.14
2022-09-16T06:42:26.972Z,71.73
2022-09-16T06:43:26.977Z,71.60
2022-09-16T06:44:26.946Z,71.70
2022-09-16T06:45:31.956Z,72.31
2022-09-16T06:46:27.123Z,71.80
2022-09-16T06:47:26.919Z,71.50
2022-09-16T06:48:26.905Z,71.33
2022-09-16T06:49:26.892Z,71.50
2022-09-16T06:50:26.941Z,71.70
2022-09-16T06:51:26.886Z,71.30
2022-09-16T06:52:26.857Z,70.89
2022-09-16T06:53:26.850Z,70.49
2022-09-16T06:54:26.893Z,70.89
2022-09-16T06:55:26.943Z,71.53
2022-09-16T06:56:31.844Z,71.94
2022-09-16T06:57:26.860Z,71.70
2022-09-16T06:58:26.794Z,72.14
2022-09-16T06:59:26.786Z,72.34
2022-09-16T07:00:26.827Z,71.84
2022-09-16T07:01:26.920Z,72.14
2022-09-16T07:02:26.819Z,71.84
2022-09-16T07:03:26.755Z,71.94
2022-09-16T07:04:26.722Z,72.34
2022-09-16T07:05:26.716Z,71.33
2022-09-16T07:06:49.616Z,71.03
2022-09-16T07:07:32.709Z,70.29
2022-09-16T07:08:26.676Z,70.32
2022-09-16T07:09:26.669Z,71.13
2022-09-16T07:10:26.654Z,70.12
2022-09-16T07:11:26.783Z,70.29
2022-09-16T07:12:26.637Z,70.09
2022-09-16T07:13:26.622Z,70.62
2022-09-16T07:14:26.609Z,70.22
2022-09-16T07:15:26.608Z,70.12
2022-09-16T07:16:26.802Z,70.02
2022-09-16T07:17:26.616Z,69.81
2022-09-16T07:18:31.586Z,70.22
2022-09-16T07:19:26.558Z,69.81
2022-09-16T07:20:26.542Z,69.61
2022-09-16T07:21:26.558Z,69.92
2022-09-16T07:22:26.529Z,69.71
2022-09-16T07:23:26.511Z,70.12
2022-09-16T07:24:26.498Z,70.32
2022-09-16T07:25:26.491Z,69.98
2022-09-16T07:26:26.477Z,70.49
2022-09-16T07:27:26.594Z,69.68
2022-09-16T07:28:26.464Z,70.22
2022-09-16T07:29:31.463Z,69.92
2022-09-16T07:30:26.484Z,70.12
2022-09-16T07:31:26.421Z,69.92
2022-09-16T07:32:26.433Z,70.02
2022-09-16T07:33:26.399Z,70.12
2022-09-16T07:34:26.401Z,70.18
2022-09-16T07:35:26.379Z,70.09
2022-09-16T07:36:26.363Z,68.06
2022-09-16T07:37:26.367Z,68.06
2022-09-16T07:38:26.342Z,68.87
2022-09-16T07:39:26.336Z,68.37
2022-09-16T07:40:31.509Z,68.47
2022-09-16T07:41:26.311Z,68.37
2022-09-16T07:42:26.309Z,68.37
2022-09-16T07:43:26.405Z,67.46
2022-09-16T07:44:26.278Z,67.35
2022-09-16T07:45:26.275Z,66.95
2022-09-16T07:46:26.334Z,67.05
2022-09-16T07:47:26.298Z,67.25
2022-09-16T07:48:26.230Z,67.35
2022-09-16T07:49:26.228Z,66.85
2022-09-16T07:50:26.214Z,67.66
2022-09-16T07:51:31.225Z,67.55
2022-09-16T07:52:26.208Z,67.96
2022-09-16T07:53:28.963Z,67.86
2022-09-16T07:54:26.163Z,67.96
2022-09-16T07:55:26.154Z,69.18
2022-09-16T07:56:26.148Z,69.38
2022-09-16T07:57:26.144Z,69.38
2022-09-16T07:58:26.120Z,67.96
2022-09-16T07:59:26.230Z,68.06
2022-09-16T08:00:26.120Z,67.35
2022-09-16T08:01:26.540Z,66.75
2022-09-16T08:02:34.932Z,66.85
2022-09-16T08:03:26.328Z,67.86
2022-09-16T08:04:26.056Z,68.40
2022-09-16T08:05:26.041Z,67.55
2022-09-16T08:06:26.034Z,67.66
2022-09-16T08:07:26.030Z,67.99
2022-09-16T08:08:26.190Z,67.25
2022-09-16T08:09:44.258Z,67.96
2022-09-16T08:10:30.404Z,67.39
2022-09-16T08:11:26.998Z,67.59
2022-09-16T08:12:25.972Z,67.96
2022-09-16T08:13:30.975Z,67.15
2022-09-16T08:14:25.941Z,67.15
2022-09-16T08:15:26.067Z,67.18
2022-09-16T08:16:25.983Z,67.39
2022-09-16T08:17:27.145Z,67.66
2022-09-16T08:18:25.918Z,67.55
2022-09-16T08:19:26.024Z,67.55
2022-09-16T08:20:26.170Z,67.15
2022-09-16T08:21:25.989Z,67.69
2022-09-16T08:22:25.923Z,67.66
2022-09-16T08:23:25.840Z,68.06
2022-09-16T08:24:30.851Z,67.96
2022-09-16T08:25:25.831Z,67.86
2022-09-16T08:26:25.836Z,67.66
2022-09-16T08:27:25.810Z,67.46
2022-09-16T08:28:25.789Z,66.44
2022-09-16T08:29:25.776Z,67.15
2022-09-16T08:30:25.761Z,66.92
2022-09-16T08:31:25.997Z,66.92
2022-09-16T08:32:25.748Z,67.86
2022-09-16T08:33:25.731Z,67.86
2022-09-16T08:34:25.716Z,67.83
2022-09-16T08:35:30.726Z,67.83
2022-09-16T08:36:25.709Z,68.33
2022-09-16T08:37:25.698Z,68.43
2022-09-16T08:38:25.679Z,67.72
2022-09-16T08:39:25.663Z,67.93
2022-09-16T08:40:25.962Z,68.54
2022-09-16T08:41:25.640Z,67.22
2022-09-16T08:42:25.740Z,66.82
2022-09-16T08:43:25.620Z,66.64
2022-09-16T08:44:25.608Z,66.35
2022-09-16T08:45:25.625Z,66.82
2022-09-16T08:46:30.721Z,66.75
2022-09-16T08:47:25.572Z,67.66
2022-09-16T08:48:28.617Z,67.86
2022-09-16T08:49:25.564Z,68.23
2022-09-16T08:50:25.543Z,68.37
2022-09-16T08:51:25.528Z,67.72
2022-09-16T08:52:25.516Z,68.13
2022-09-16T08:53:25.520Z,67.93
2022-09-16T08:54:25.521Z,67.63
2022-09-16T08:55:25.517Z,65.20
2022-09-16T08:56:25.472Z,65.00
2022-09-16T08:57:30.499Z,62.85
2022-09-16T08:58:25.453Z,61.91
2022-09-16T08:59:25.479Z,62.14
2022-09-16T09:00:25.452Z,61.03
2022-09-16T09:01:25.756Z,60.72
2022-09-16T09:02:26.139Z,60.89
2022-09-16T09:03:25.470Z,61.13
2022-09-16T09:04:25.390Z,60.22
2022-09-16T09:05:25.370Z,60.72
2022-09-16T09:06:25.372Z,61.51
2022-09-16T09:07:25.352Z,61.83
2022-09-16T09:08:30.380Z,61.63
2022-09-16T09:09:25.335Z,61.23
2022-09-16T09:10:25.323Z,61.63
2022-09-16T09:11:25.305Z,61.33
2022-09-16T09:12:26.409Z,61.63
2022-09-16T09:13:25.908Z,61.91
2022-09-16T09:14:25.271Z,62.31
2022-09-16T09:15:28.279Z,62.31
2022-09-16T09:16:25.363Z,62.82
2022-09-16T09:17:25.247Z,62.41
2022-09-16T09:18:25.381Z,62.21
2022-09-16T09:19:30.282Z,62.41
2022-09-16T09:20:25.203Z,61.37
2022-09-16T09:21:27.246Z,60.77
2022-09-16T09:22:25.181Z,60.66
2022-09-16T09:23:25.202Z,60.57
2022-09-16T09:24:25.170Z,59.35
2022-09-16T09:25:25.169Z,59.56
2022-09-16T09:26:25.140Z,60.06
2022-09-16T09:27:25.136Z,59.35
2022-09-16T09:28:25.132Z,59.45
2022-09-16T09:29:25.106Z,59.45
2022-09-16T09:30:30.117Z,59.22
2022-09-16T09:31:25.158Z,59.02
2022-09-16T09:32:25.076Z,59.12
2022-09-16T09:33:44.903Z,58.52
2022-09-16T09:35:35.016Z,58.14
2022-09-16T09:36:34.850Z,57.54
2022-09-16T09:37:34.837Z,57.51
2022-09-16T09:38:34.834Z,58.52
2022-09-16T09:39:34.826Z,57.31
2022-09-16T09:40:34.941Z,58.62
2022-09-16T09:41:34.792Z,57.41
2022-09-16T09:42:34.784Z,56.60
2022-09-16T09:43:34.818Z,56.32
2022-09-16T09:44:34.762Z,56.63
2022-09-16T09:45:34.749Z,57.43
2022-09-16T09:46:39.760Z,57.43
2022-09-16T09:47:34.724Z,57.10
2022-09-16T09:48:34.746Z,57.51
2022-09-16T09:49:34.756Z,57.41
2022-09-16T09:50:34.690Z,57.51
2022-09-16T09:51:34.810Z,58.22
2022-09-16T09:52:34.671Z,58.42
2022-09-16T09:53:34.673Z,58.29
2022-09-16T09:54:34.647Z,55.97
2022-09-16T09:55:34.635Z,57.08
2022-09-16T09:56:34.628Z,55.87
2022-09-16T09:57:39.634Z,54.79
2022-09-16T09:58:34.609Z,55.49
2022-09-16T09:59:34.589Z,55.29
2022-09-16T10:00:34.620Z,55.09
2022-09-16T10:01:34.570Z,54.68
2022-09-16T10:02:34.553Z,54.68
2022-09-16T10:03:34.571Z,54.48
2022-09-16T10:04:34.534Z,54.48
2022-09-16T10:05:34.563Z,53.27
2022-09-16T10:06:34.511Z,55.09
2022-09-16T10:07:34.624Z,55.39
2022-09-16T10:08:39.553Z,55.39
2022-09-16T10:09:34.490Z,55.09
2022-09-16T10:10:34.463Z,55.26
2022-09-16T10:11:34.454Z,56.07
2022-09-16T10:12:34.440Z,56.60
2022-09-16T10:13:34.438Z,56.81
2022-09-16T10:14:34.419Z,55.90
2022-09-16T10:15:34.418Z,57.31
2022-09-16T10:16:34.456Z,56.70
2022-09-16T10:17:34.385Z,55.49
2022-09-16T10:18:34.383Z,55.79
2022-09-16T10:19:39.385Z,56.37
2022-09-16T10:20:34.369Z,55.26
2022-09-16T10:21:34.373Z,56.20
2022-09-16T10:22:34.325Z,56.60
2022-09-16T10:23:34.455Z,56.17
2022-09-16T10:24:34.301Z,55.66
2022-09-16T10:25:34.296Z,55.87
2022-09-16T10:26:34.279Z,55.16
2022-09-16T10:27:34.269Z,55.16
2022-09-16T10:28:34.269Z,56.27
2022-09-16T10:29:34.250Z,55.44
2022-09-16T10:30:39.274Z,55.57
2022-09-16T10:31:34.741Z,55.44
2022-09-16T10:32:34.213Z,54.43
2022-09-16T10:33:34.223Z,54.53
2022-09-16T10:34:34.222Z,54.66
2022-09-16T10:35:34.178Z,55.16
2022-09-16T10:36:34.172Z,54.46
2022-09-16T10:37:34.153Z,54.46
2022-09-16T10:38:34.156Z,54.66
2022-09-16T10:39:34.344Z,55.66
2022-09-16T10:40:34.183Z,55.64
2022-09-16T10:41:39.132Z,55.21
2022-09-16T10:42:34.102Z,54.23
2022-09-16T10:43:34.102Z,54.53
2022-09-16T10:44:34.074Z,55.54
2022-09-16T10:45:34.067Z,54.71
2022-09-16T10:46:34.116Z,54.30
2022-09-16T10:47:34.126Z,52.47
2022-09-16T10:48:34.054Z,53.07
2022-09-16T10:49:34.030Z,52.49
2022-09-16T10:50:34.041Z,53.00
2022-09-16T10:51:33.995Z,53.80
2022-09-16T10:52:39.004Z,53.60
2022-09-16T10:53:37.728Z,53.09
2022-09-16T10:54:34.957Z,52.89
2022-09-16T10:55:34.078Z,52.89
2022-09-16T10:56:33.934Z,53.27
2022-09-16T10:57:33.931Z,53.30
2022-09-16T10:58:33.928Z,51.18
2022-09-16T10:59:33.926Z,51.97
2022-09-16T11:00:34.000Z,51.99
2022-09-16T11:01:35.022Z,51.48
2022-09-16T11:02:33.869Z,51.99
2022-09-16T11:03:38.894Z,52.69
2022-09-16T11:04:33.878Z,52.59
2022-09-16T11:05:33.871Z,52.80
2022-09-16T11:06:33.822Z,52.37
2022-09-16T11:07:33.811Z,51.73
2022-09-16T11:08:33.797Z,51.34
2022-09-16T11:09:33.806Z,51.31
2022-09-16T11:10:33.773Z,50.60
2022-09-16T11:11:33.897Z,49.80
2022-09-16T11:12:33.750Z,50.02
2022-09-16T11:13:33.752Z,50.43
2022-09-16T11:14:38.763Z,51.36
2022-09-16T11:15:33.718Z,51.66
2022-09-16T11:16:33.777Z,51.23
2022-09-16T11:17:33.695Z,51.23
2022-09-16T11:18:33.745Z,51.93
2022-09-16T11:19:33.680Z,52.14
2022-09-16T11:20:33.676Z,51.14
2022-09-16T11:21:33.695Z,50.23
2022-09-16T11:22:33.635Z,50.13
2022-09-16T11:23:33.625Z,50.10
2022-09-16T11:24:33.623Z,50.48
2022-09-16T11:25:38.633Z,49.95
2022-09-16T11:26:33.631Z,49.45
2022-09-16T11:27:33.713Z,49.02
2022-09-16T11:28:33.567Z,48.50
2022-09-16T11:29:33.586Z,47.97
2022-09-16T11:30:33.546Z,46.65
2022-09-16T11:31:33.595Z,46.93
2022-09-16T11:32:33.630Z,45.45
2022-09-16T11:33:33.524Z,45.72
2022-09-16T11:34:33.524Z,45.90
2022-09-16T11:35:33.489Z,45.83
2022-09-16T11:36:38.712Z,44.82
2022-09-16T11:37:33.492Z,44.72
2022-09-16T11:38:33.458Z,44.74
2022-09-16T11:39:33.484Z,44.84
2022-09-16T11:40:33.540Z,45.04
2022-09-16T11:41:33.420Z,44.95
2022-09-16T11:42:33.408Z,44.84
2022-09-16T11:43:33.533Z,43.94
2022-09-16T11:44:33.403Z,43.92
2022-09-16T11:45:33.378Z,44.32
2022-09-16T11:46:33.417Z,44.74
2022-09-16T11:47:40.758Z,45.26
2022-09-16T11:48:33.349Z,44.67
2022-09-16T11:49:33.341Z,46.72
2022-09-16T11:50:33.318Z,46.31
2022-09-16T11:51:33.315Z,46.72
2022-09-16T11:52:33.306Z,47.24
2022-09-16T11:53:36.432Z,47.52
2022-09-16T11:54:33.299Z,47.62
2022-09-16T11:55:33.265Z,46.69
2022-09-16T11:56:33.257Z,46.59
2022-09-16T11:57:33.246Z,46.17
2022-09-16T11:58:38.386Z,45.75
2022-09-16T11:59:33.234Z,45.40
2022-09-16T12:00:33.214Z,43.98
2022-09-16T12:01:33.294Z,43.96
2022-09-16T12:02:33.458Z,43.04
2022-09-16T12:03:33.177Z,43.71
2022-09-16T12:04:35.023Z,43.76
2022-09-16T12:05:33.154Z,43.98
2022-09-16T12:06:33.140Z,44.80
2022-09-16T12:07:33.131Z,45.92
2022-09-16T12:08:33.117Z,46.04
2022-09-16T12:09:38.163Z,46.97
2022-09-16T12:10:33.095Z,46.89
2022-09-16T12:11:33.133Z,48.83
2022-09-16T12:12:33.071Z,48.02
2022-09-16T12:13:33.087Z,48.83
2022-09-16T12:14:33.180Z,49.13
2022-09-16T12:16:33.031Z,48.50
2022-09-16T12:17:33.134Z,47.39
2022-09-16T12:18:33.004Z,47.80
2022-09-16T12:19:33.027Z,47.77
2022-09-16T12:20:38.025Z,48.66
2022-09-16T12:21:32.969Z,48.48
2022-09-16T12:22:32.956Z,48.96
2022-09-16T12:23:32.960Z,48.61
2022-09-16T12:24:32.938Z,47.23
2022-09-16T12:25:33.393Z,47.15
2022-09-16T12:26:32.911Z,47.11
2022-09-16T12:27:33.544Z,47.04
2022-09-16T12:28:32.889Z,44.79
2022-09-16T12:29:32.894Z,43.75
2022-09-16T12:30:33.005Z,43.21
2022-09-16T12:31:37.903Z,42.67
2022-09-16T12:32:32.844Z,42.33
2022-09-16T12:33:32.898Z,40.70
2022-09-16T12:34:32.826Z,39.70
2022-09-16T12:35:32.824Z,39.78
2022-09-16T12:36:32.815Z,38.87
2022-09-16T12:37:32.791Z,39.15
2022-09-16T12:38:32.787Z,38.77
2022-09-16T12:39:32.766Z,37.77
2022-09-16T12:40:32.846Z,38.24
2022-09-16T12:41:32.743Z,37.82
2022-09-16T12:42:37.758Z,37.52
2022-09-16T12:43:32.724Z,36.66
2022-09-16T12:44:34.885Z,38.81
2022-09-16T12:45:32.710Z,41.28
2022-09-16T12:46:32.824Z,41.36
2022-09-16T12:47:32.678Z,42.29
2022-09-16T12:48:32.696Z,43.74
2022-09-16T12:49:32.659Z,43.96
2022-09-16T12:50:32.662Z,44.68
2022-09-16T12:51:32.636Z,45.70
2022-09-16T12:52:32.648Z,46.20
2022-09-16T12:53:37.646Z,46.41
2022-09-16T12:54:45.768Z,46.23
2022-09-16T12:55:33.602Z,46.65
2022-09-16T12:56:32.582Z,46.35
2022-09-16T12:57:32.566Z,46.15
2022-09-16T12:58:32.555Z,45.97
2022-09-16T12:59:32.546Z,45.79
2022-09-16T13:00:32.553Z,47.09
2022-09-16T13:01:32.639Z,46.80
2022-09-16T13:02:32.777Z,47.30
2022-09-16T13:03:32.610Z,47.90
2022-09-16T13:04:37.511Z,48.60
2022-09-16T13:05:33.541Z,48.50
2022-09-16T13:06:32.513Z,48.80
2022-09-16T13:07:33.038Z,48.60
2022-09-16T13:08:32.442Z,47.80
2022-09-16T13:09:32.429Z,47.72
2022-09-16T13:10:53.772Z,47.72
2022-09-16T13:12:44.051Z,48.72
2022-09-16T13:13:33.388Z,47.85
2022-09-16T13:14:32.380Z,48.25
2022-09-16T13:15:37.806Z,48.55
2022-09-16T13:16:32.529Z,49.05
2022-09-16T13:17:32.339Z,49.65
2022-09-16T13:18:33.471Z,49.57
2022-09-16T13:19:32.318Z,48.47
2022-09-16T13:20:32.319Z,48.97
2022-09-16T13:21:32.294Z,50.78
2022-09-16T13:22:32.290Z,50.28
2022-09-16T13:23:32.273Z,50.91
2022-09-16T13:24:32.263Z,50.68
2022-09-16T13:25:32.260Z,50.91
2022-09-16T13:26:37.265Z,50.31
2022-09-16T13:27:32.256Z,50.71
2022-09-16T13:28:32.217Z,51.01
2022-09-16T13:29:32.209Z,51.73
2022-09-16T13:30:32.204Z,51.84
2022-09-16T13:31:34.390Z,52.82
2022-09-16T13:32:32.181Z,52.42
2022-09-16T13:33:32.160Z,52.54
2022-09-16T13:34:32.278Z,52.74
2022-09-16T13:35:32.158Z,55.06
2022-09-16T13:36:32.129Z,54.28
2022-09-16T13:37:37.138Z,55.29
2022-09-16T13:38:32.109Z,55.89
2022-09-16T13:39:32.094Z,56.29
2022-09-16T13:40:32.137Z,58.14
2022-09-16T13:41:32.078Z,61.25
2022-09-16T13:42:32.059Z,61.05
2022-09-16T13:43:32.046Z,62.37
2022-09-16T13:44:32.035Z,62.70
2022-09-16T13:45:32.023Z,62.93
2022-09-16T13:46:32.161Z,62.85
2022-09-16T13:47:32.003Z,62.96
2022-09-16T13:48:37.012Z,64.70
2022-09-16T13:49:31.978Z,64.67
2022-09-16T13:50:32.105Z,65.38
2022-09-16T13:51:36.011Z,65.48
2022-09-16T13:52:31.943Z,64.70
2022-09-16T13:53:31.936Z,65.38
2022-09-16T13:54:33.109Z,64.70
2022-09-16T13:55:32.910Z,64.40
2022-09-16T13:56:31.976Z,64.90
2022-09-16T13:57:31.890Z,63.70
2022-09-16T13:58:31.878Z,63.70
2022-09-16T13:59:36.888Z,63.70
2022-09-16T14:00:35.389Z,65.41
2022-09-16T14:01:42.201Z,65.51
2022-09-16T14:02:32.937Z,66.02
2022-09-16T14:03:31.862Z,66.32
2022-09-16T14:04:31.810Z,66.86
2022-09-16T14:05:31.821Z,66.45
2022-09-16T14:06:31.914Z,67.46
2022-09-16T14:07:31.774Z,67.06
2022-09-16T14:08:31.766Z,66.86
2022-09-16T14:09:31.752Z,66.75
2022-09-16T14:10:36.772Z,65.75
2022-09-16T14:11:31.763Z,64.70
2022-09-16T14:12:31.719Z,63.70
2022-09-16T14:13:31.709Z,63.79
2022-09-16T14:14:48.069Z,64.58
2022-09-16T14:15:32.731Z,63.87
2022-09-16T14:16:31.685Z,61.82
2022-09-16T14:17:31.669Z,60.94
2022-09-16T14:18:31.658Z,60.84
2022-09-16T14:19:31.641Z,60.10
2022-09-16T14:20:31.631Z,60.81
2022-09-16T14:21:36.763Z,60.51
2022-09-16T14:22:31.615Z,60.00
2022-09-16T14:23:31.598Z,60.53
2022-09-16T14:24:31.590Z,60.13
2022-09-16T14:25:31.572Z,60.44
2022-09-16T14:26:31.573Z,60.61
2022-09-16T14:27:31.564Z,61.41
2022-09-16T14:28:32.354Z,61.82
2022-09-16T14:29:31.528Z,61.52
2022-09-16T14:30:31.517Z,61.41
2022-09-16T14:31:31.599Z,62.32
2022-09-16T14:32:36.520Z,62.32
2022-09-16T14:33:31.482Z,62.43
2022-09-16T14:34:31.473Z,61.55
2022-09-16T14:35:31.460Z,61.44
2022-09-16T14:36:31.463Z,62.55
2022-09-16T14:37:31.567Z,63.06
2022-09-16T14:38:44.944Z,61.57
2022-09-16T14:39:32.439Z,60.66
2022-09-16T14:40:31.502Z,60.66
2022-09-16T14:41:31.531Z,60.66
2022-09-16T14:42:31.384Z,60.57
2022-09-16T14:43:36.394Z,60.87
2022-09-16T14:44:31.364Z,59.35
2022-09-16T14:45:31.367Z,59.58
2022-09-16T14:46:31.358Z,60.29
2022-09-16T14:47:50.075Z,60.49
2022-09-16T14:48:32.346Z,62.54
2022-09-16T14:49:31.304Z,63.05
2022-09-16T14:50:31.293Z,63.55
2022-09-16T14:51:31.306Z,64.06
2022-09-16T14:52:31.326Z,66.52
2022-09-16T14:53:35.772Z,65.00
2022-09-16T14:54:37.269Z,66.61
2022-09-16T14:55:31.309Z,68.26
2022-09-16T14:56:31.226Z,68.06
2022-09-16T14:57:31.224Z,66.55
2022-09-16T14:58:31.227Z,68.50
2022-09-16T14:59:31.189Z,67.69
2022-09-16T15:00:31.183Z,67.79
2022-09-16T15:01:31.220Z,68.70
2022-09-16T15:02:31.223Z,68.90
2022-09-16T15:03:31.144Z,69.68
2022-09-16T15:04:31.144Z,68.37
2022-09-16T15:05:36.144Z,67.79
2022-09-16T15:06:31.118Z,69.51
2022-09-16T15:07:32.630Z,69.85
2022-09-16T15:08:31.089Z,70.25
2022-09-16T15:09:31.196Z,70.36
2022-09-16T15:10:44.604Z,70.25
2022-09-16T15:11:48.429Z,70.25
2022-09-16T15:12:32.056Z,70.76
2022-09-16T15:13:31.032Z,70.25
2022-09-16T15:14:31.022Z,70.15
2022-09-16T15:15:31.039Z,69.41
2022-09-16T15:16:36.020Z,70.12
2022-09-16T15:17:30.995Z,69.81
2022-09-16T15:18:30.975Z,70.32
2022-09-16T15:19:30.963Z,67.99
2022-09-16T15:20:30.955Z,68.10
2022-09-16T15:21:30.951Z,69.10
2022-09-16T15:22:30.930Z,68.10
2022-09-16T15:23:30.917Z,68.16
2022-09-16T15:24:30.922Z,68.16
2022-09-16T15:25:31.012Z,67.99
2022-09-16T15:26:30.897Z,67.86
2022-09-16T15:27:35.894Z,67.66
2022-09-16T15:28:30.863Z,67.05
2022-09-16T15:29:30.868Z,66.75
2022-09-16T15:30:30.840Z,67.25
2022-09-16T15:31:30.938Z,67.66
2022-09-16T15:32:30.832Z,67.25
2022-09-16T15:33:32.541Z,67.46
2022-09-16T15:34:30.946Z,67.66
2022-09-16T15:35:30.781Z,67.52
2022-09-16T15:36:30.772Z,66.85
2022-09-16T15:37:30.770Z,66.21
2022-09-16T15:38:35.770Z,67.76
2022-09-16T15:39:30.738Z,67.43
2022-09-16T15:40:30.799Z,67.32
2022-09-16T15:41:30.831Z,67.46
2022-09-16T15:42:30.714Z,66.92
2022-09-16T15:43:30.702Z,67.02
2022-09-16T15:44:33.901Z,67.32
2022-09-16T15:45:31.667Z,66.61
2022-09-16T15:46:30.696Z,67.32
2022-09-16T15:47:30.654Z,66.82
2022-09-16T15:48:30.643Z,67.22
2022-09-16T15:49:35.649Z,66.92
2022-09-16T15:50:30.612Z,66.31
2022-09-16T15:51:30.599Z,66.58
2022-09-16T15:52:30.604Z,66.11
2022-09-16T15:53:30.581Z,65.00
2022-09-16T15:54:30.608Z,64.02
2022-09-16T15:55:30.559Z,63.28
2022-09-16T15:56:30.568Z,63.31
2022-09-16T15:57:30.678Z,63.01
2022-09-16T15:58:30.529Z,63.41
2022-09-16T15:59:30.509Z,63.10
2022-09-16T16:00:35.523Z,62.40
2022-09-16T16:01:30.641Z,61.90
2022-09-16T16:02:30.518Z,61.49
2022-09-16T16:03:30.463Z,63.21
2022-09-16T16:04:30.501Z,63.34
2022-09-16T16:05:30.443Z,63.41
2022-09-16T16:06:30.434Z,63.51
2022-09-16T16:07:30.432Z,63.31
2022-09-16T16:08:30.410Z,62.90
2022-09-16T16:09:30.402Z,62.81
2022-09-16T16:10:30.393Z,61.96
2022-09-16T16:11:35.399Z,61.66
2022-09-16T16:12:30.378Z,61.99
2022-09-16T16:13:30.466Z,62.37
2022-09-16T16:14:30.344Z,62.16
2022-09-16T16:15:30.402Z,60.96
2022-09-16T16:16:30.321Z,61.87
2022-09-16T16:17:30.318Z,61.56
2022-09-16T16:18:30.318Z,61.53
2022-09-16T16:19:30.303Z,60.62
2022-09-16T16:20:30.273Z,61.87
2022-09-16T16:21:30.314Z,61.36
2022-09-16T16:22:35.443Z,61.56
2022-09-16T16:23:30.238Z,62.54
2022-09-16T16:24:30.229Z,61.83
2022-09-16T16:25:30.321Z,61.56
2022-09-16T16:26:30.206Z,62.44
2022-09-16T16:27:30.204Z,61.83
2022-09-16T16:28:30.194Z,61.13
2022-09-16T16:29:30.284Z,61.63
2022-09-16T16:30:30.160Z,62.44
2022-09-16T16:31:30.190Z,62.87
2022-09-16T16:32:30.155Z,63.18
2022-09-16T16:33:35.147Z,62.85
2022-09-16T16:34:30.115Z,63.18
2022-09-16T16:35:30.101Z,63.48
2022-09-16T16:36:30.093Z,63.31
2022-09-16T16:37:47.106Z,63.89
2022-09-16T16:38:31.085Z,64.32
2022-09-16T16:39:30.059Z,63.61
2022-09-16T16:40:30.140Z,63.61
2022-09-16T16:41:30.033Z,64.93
2022-09-16T16:42:30.058Z,66.64
2022-09-16T16:43:30.010Z,66.58
2022-09-16T16:44:35.145Z,66.88
2022-09-16T16:45:30.006Z,68.23
2022-09-16T16:46:30.006Z,67.45
2022-09-16T16:47:29.979Z,68.97
2022-09-16T16:48:29.954Z,69.68
2022-09-16T16:49:29.941Z,69.61
2022-09-16T16:50:29.932Z,70.21
2022-09-16T16:51:29.919Z,70.72
2022-09-16T16:52:29.917Z,70.42
2022-09-16T16:53:29.901Z,70.35
2022-09-16T16:54:29.886Z,70.72
2022-09-16T16:55:34.897Z,69.92